sensor_id;sensor_type;location;lat;lon;timestamp;temperature;humidity
32749;DHT22;19119;52.474;13.710;2024-03-08T00:00:09;-1.30;99.90
32749;DHT22;19119;52.474;13.710;2024-03-08T00:02:37;-1.40;99.90
32749;DHT22;19119;52.474;13.710;2024-03-08T00:05:07;-1.40;99.90
32749;DHT22;19119;52.474;13.710;2024-03-08T00:07:34;-1.40;99.90
32749;DHT22;19119;52.474;13.710;2024-03-08T00:10:00;-1.40;99.90
32749;DHT22;19119;52.474;13.710;2024-03-08T00:12:25;-1.40;99.90
32749;DHT22;19119;52.474;13.710;2024-03-08T00:14:54;-1.40;99.90
32749;DHT22;19119;52.474;13.710;2024-03-08T00:17:20;-1.50;99.90
32749;DHT22;19119;52.474;13.710;2024-03-08T00:19:48;-1.50;99.90
32749;DHT22;19119;52.474;13.710;2024-03-08T00:22:15;-1.50;99.90
32749;DHT22;19119;52.474;13.710;2024-03-08T00:24:41;-1.50;99.90
32749;DHT22;19119;52.474;13.710;2024-03-08T00:27:06;-1.50;99.90
32749;DHT22;19119;52.474;13.710;2024-03-08T00:29:32;-1.50;99.90
32749;DHT22;19119;52.474;13.710;2024-03-08T00:31:57;-1.50;99.90
32749;DHT22;19119;52.474;13.710;2024-03-08T00:34:23;-1.50;99.90
32749;DHT22;19119;52.474;13.710;2024-03-08T00:36:48;-1.60;99.90
32749;DHT22;19119;52.474;13.710;2024-03-08T00:39:14;-1.60;99.90
32749;DHT22;19119;52.474;13.710;2024-03-08T00:41:39;-1.70;99.90
32749;DHT22;19119;52.474;13.710;2024-03-08T00:44:05;-1.70;99.90
32749;DHT22;19119;52.474;13.710;2024-03-08T00:46:30;-1.70;99.90
32749;DHT22;19119;52.474;13.710;2024-03-08T00:48:57;-1.70;99.90
32749;DHT22;19119;52.474;13.710;2024-03-08T00:51:22;-1.70;99.90
32749;DHT22;19119;52.474;13.710;2024-03-08T00:53:47;-1.80;99.90
32749;DHT22;19119;52.474;13.710;2024-03-08T00:56:13;-1.80;99.90
32749;DHT22;19119;52.474;13.710;2024-03-08T00:58:39;-1.80;99.90
32749;DHT22;19119;52.474;13.710;2024-03-08T01:01:04;-1.80;99.90
32749;DHT22;19119;52.474;13.710;2024-03-08T01:03:30;-1.80;99.90
32749;DHT22;19119;52.474;13.710;2024-03-08T01:05:57;-1.80;99.90
32749;DHT22;19119;52.474;13.710;2024-03-08T01:08:23;-1.80;99.90
32749;DHT22;19119;52.474;13.710;2024-03-08T01:10:48;-1.90;99.90
32749;DHT22;19119;52.474;13.710;2024-03-08T01:13:16;-1.90;99.90
32749;DHT22;19119;52.474;13.710;2024-03-08T01:15:41;-1.90;99.90
32749;DHT22;19119;52.474;13.710;2024-03-08T01:18:07;-1.90;99.90
32749;DHT22;19119;52.474;13.710;2024-03-08T01:20:32;-1.90;99.90
32749;DHT22;19119;52.474;13.710;2024-03-08T01:22:58;-1.90;99.90
32749;DHT22;19119;52.474;13.710;2024-03-08T01:25:23;-2.00;99.90
32749;DHT22;19119;52.474;13.710;2024-03-08T01:27:49;-2.00;99.90
32749;DHT22;19119;52.474;13.710;2024-03-08T01:30:14;-1.90;99.90
32749;DHT22;19119;52.474;13.710;2024-03-08T01:32:42;-2.00;99.90
32749;DHT22;19119;52.474;13.710;2024-03-08T01:35:09;-2.10;99.90
32749;DHT22;19119;52.474;13.710;2024-03-08T01:37:35;-2.10;99.90
32749;DHT22;19119;52.474;13.710;2024-03-08T01:40:00;-2.10;99.90
32749;DHT22;19119;52.474;13.710;2024-03-08T01:42:25;-2.10;99.90
32749;DHT22;19119;52.474;13.710;2024-03-08T01:44:51;-2.10;99.90
32749;DHT22;19119;52.474;13.710;2024-03-08T01:47:17;-2.10;99.90
32749;DHT22;19119;52.474;13.710;2024-03-08T01:49:43;-2.10;99.90
32749;DHT22;19119;52.474;13.710;2024-03-08T01:52:09;-2.10;99.90
32749;DHT22;19119;52.474;13.710;2024-03-08T01:54:35;-2.20;99.90
32749;DHT22;19119;52.474;13.710;2024-03-08T01:57:01;-2.20;99.90
32749;DHT22;19119;52.474;13.710;2024-03-08T01:59:27;-2.10;99.90
32749;DHT22;19119;52.474;13.710;2024-03-08T02:01:55;-2.10;99.90
32749;DHT22;19119;52.474;13.710;2024-03-08T02:04:21;-2.10;99.90
32749;DHT22;19119;52.474;13.710;2024-03-08T02:06:47;-2.10;99.90
32749;DHT22;19119;52.474;13.710;2024-03-08T02:09:13;-2.10;99.90
32749;DHT22;19119;52.474;13.710;2024-03-08T02:11:41;-2.10;99.90
32749;DHT22;19119;52.474;13.710;2024-03-08T02:14:06;-2.10;99.90
32749;DHT22;19119;52.474;13.710;2024-03-08T02:16:32;-2.10;99.90
32749;DHT22;19119;52.474;13.710;2024-03-08T02:18:58;-2.10;99.90
32749;DHT22;19119;52.474;13.710;2024-03-08T02:21:24;-2.20;99.90
32749;DHT22;19119;52.474;13.710;2024-03-08T02:23:49;-2.20;99.90
32749;DHT22;19119;52.474;13.710;2024-03-08T02:26:17;-2.20;99.90
32749;DHT22;19119;52.474;13.710;2024-03-08T02:28:44;-2.20;99.90
32749;DHT22;19119;52.474;13.710;2024-03-08T02:31:10;-2.20;99.90
32749;DHT22;19119;52.474;13.710;2024-03-08T02:33:35;-2.20;99.90
32749;DHT22;19119;52.474;13.710;2024-03-08T02:36:01;-2.20;99.90
32749;DHT22;19119;52.474;13.710;2024-03-08T02:38:27;-2.20;99.90
32749;DHT22;19119;52.474;13.710;2024-03-08T02:40:54;-2.20;99.90
32749;DHT22;19119;52.474;13.710;2024-03-08T02:43:20;-2.20;99.90
32749;DHT22;19119;52.474;13.710;2024-03-08T02:45:47;-2.30;99.90
32749;DHT22;19119;52.474;13.710;2024-03-08T02:48:14;-2.30;99.90
32749;DHT22;19119;52.474;13.710;2024-03-08T02:50:40;-2.30;99.90
32749;DHT22;19119;52.474;13.710;2024-03-08T02:53:08;-2.30;99.90
32749;DHT22;19119;52.474;13.710;2024-03-08T02:55:33;-2.30;99.90
32749;DHT22;19119;52.474;13.710;2024-03-08T02:58:01;-2.30;99.90
32749;DHT22;19119;52.474;13.710;2024-03-08T03:00:28;-2.30;99.90
32749;DHT22;19119;52.474;13.710;2024-03-08T03:02:56;-2.30;99.90
32749;DHT22;19119;52.474;13.710;2024-03-08T03:05:22;-2.30;99.90
32749;DHT22;19119;52.474;13.710;2024-03-08T03:07:47;-2.40;99.90
32749;DHT22;19119;52.474;13.710;2024-03-08T03:10:13;-2.30;99.90
32749;DHT22;19119;52.474;13.710;2024-03-08T03:12:42;-2.30;99.90
32749;DHT22;19119;52.474;13.710;2024-03-08T03:15:08;-2.30;99.90
32749;DHT22;19119;52.474;13.710;2024-03-08T03:17:33;-2.20;99.90
32749;DHT22;19119;52.474;13.710;2024-03-08T03:19:59;-2.20;99.90
32749;DHT22;19119;52.474;13.710;2024-03-08T03:22:24;-2.20;99.90
32749;DHT22;19119;52.474;13.710;2024-03-08T03:24:50;-2.20;99.90
32749;DHT22;19119;52.474;13.710;2024-03-08T03:27:17;-2.10;99.90
32749;DHT22;19119;52.474;13.710;2024-03-08T03:29:43;-2.10;99.90
32749;DHT22;19119;52.474;13.710;2024-03-08T03:32:12;-2.10;99.90
32749;DHT22;19119;52.474;13.710;2024-03-08T03:34:39;-2.00;99.90
32749;DHT22;19119;52.474;13.710;2024-03-08T03:37:05;-2.00;99.90
32749;DHT22;19119;52.474;13.710;2024-03-08T03:39:32;-2.00;99.90
32749;DHT22;19119;52.474;13.710;2024-03-08T03:41:58;-2.00;99.90
32749;DHT22;19119;52.474;13.710;2024-03-08T03:44:24;-2.00;99.90
32749;DHT22;19119;52.474;13.710;2024-03-08T03:46:49;-2.00;99.90
32749;DHT22;19119;52.474;13.710;2024-03-08T03:49:16;-2.00;99.90
32749;DHT22;19119;52.474;13.710;2024-03-08T03:51:42;-1.90;99.90
32749;DHT22;19119;52.474;13.710;2024-03-08T03:54:08;-1.90;99.90
32749;DHT22;19119;52.474;13.710;2024-03-08T03:56:33;-1.80;99.90
32749;DHT22;19119;52.474;13.710;2024-03-08T03:58:59;-1.80;99.90
32749;DHT22;19119;52.474;13.710;2024-03-08T04:01:24;-1.80;99.90
32749;DHT22;19119;52.474;13.710;2024-03-08T04:03:50;-1.80;99.90
32749;DHT22;19119;52.474;13.710;2024-03-08T04:06:15;-1.70;99.90
32749;DHT22;19119;52.474;13.710;2024-03-08T04:08:41;-1.70;99.90
32749;DHT22;19119;52.474;13.710;2024-03-08T04:11:07;-1.60;99.90
32749;DHT22;19119;52.474;13.710;2024-03-08T04:13:34;-1.70;99.90
32749;DHT22;19119;52.474;13.710;2024-03-08T04:15:59;-1.60;99.90
32749;DHT22;19119;52.474;13.710;2024-03-08T04:18:25;-1.60;99.90
32749;DHT22;19119;52.474;13.710;2024-03-08T04:20:51;-1.60;99.90
32749;DHT22;19119;52.474;13.710;2024-03-08T04:23:16;-1.60;99.90
32749;DHT22;19119;52.474;13.710;2024-03-08T04:25:43;-1.60;99.90
32749;DHT22;19119;52.474;13.710;2024-03-08T04:28:09;-1.70;99.90
32749;DHT22;19119;52.474;13.710;2024-03-08T04:30:38;-1.70;99.90
32749;DHT22;19119;52.474;13.710;2024-03-08T04:33:05;-1.80;99.90
32749;DHT22;19119;52.474;13.710;2024-03-08T04:35:31;-1.90;99.90
32749;DHT22;19119;52.474;13.710;2024-03-08T04:37:57;-1.90;99.90
32749;DHT22;19119;52.474;13.710;2024-03-08T04:40:23;-2.00;99.90
32749;DHT22;19119;52.474;13.710;2024-03-08T04:42:49;-2.00;99.90
32749;DHT22;19119;52.474;13.710;2024-03-08T04:45:16;-2.10;99.90
32749;DHT22;19119;52.474;13.710;2024-03-08T04:47:42;-2.10;99.90
32749;DHT22;19119;52.474;13.710;2024-03-08T04:50:08;-2.20;99.90
32749;DHT22;19119;52.474;13.710;2024-03-08T04:52:34;-2.20;99.90
32749;DHT22;19119;52.474;13.710;2024-03-08T04:55:01;-2.20;99.90
32749;DHT22;19119;52.474;13.710;2024-03-08T04:57:27;-2.20;99.90
32749;DHT22;19119;52.474;13.710;2024-03-08T04:59:53;-2.10;99.90
32749;DHT22;19119;52.474;13.710;2024-03-08T05:02:18;-2.10;99.90
32749;DHT22;19119;52.474;13.710;2024-03-08T05:04:43;-2.10;99.90
32749;DHT22;19119;52.474;13.710;2024-03-08T05:07:09;-2.00;99.90
32749;DHT22;19119;52.474;13.710;2024-03-08T05:09:35;-2.00;99.90
32749;DHT22;19119;52.474;13.710;2024-03-08T05:12:01;-2.00;99.90
32749;DHT22;19119;52.474;13.710;2024-03-08T05:14:27;-2.00;99.90
32749;DHT22;19119;52.474;13.710;2024-03-08T05:16:52;-1.90;99.90
32749;DHT22;19119;52.474;13.710;2024-03-08T05:19:19;-2.00;99.90
32749;DHT22;19119;52.474;13.710;2024-03-08T05:21:49;-1.90;99.90
32749;DHT22;19119;52.474;13.710;2024-03-08T05:24:15;-1.90;99.90
32749;DHT22;19119;52.474;13.710;2024-03-08T05:26:43;-2.00;99.90
32749;DHT22;19119;52.474;13.710;2024-03-08T05:29:09;-2.00;99.90
32749;DHT22;19119;52.474;13.710;2024-03-08T05:31:50;-1.90;99.90
32749;DHT22;19119;52.474;13.710;2024-03-08T05:34:20;-1.90;99.90
32749;DHT22;19119;52.474;13.710;2024-03-08T05:36:47;-1.80;99.90
32749;DHT22;19119;52.474;13.710;2024-03-08T05:39:18;-1.80;99.90
32749;DHT22;19119;52.474;13.710;2024-03-08T05:41:44;-1.80;99.90
32749;DHT22;19119;52.474;13.710;2024-03-08T05:44:11;-1.80;99.90
32749;DHT22;19119;52.474;13.710;2024-03-08T05:46:37;-1.80;99.90
32749;DHT22;19119;52.474;13.710;2024-03-08T05:49:03;-1.70;99.90
32749;DHT22;19119;52.474;13.710;2024-03-08T05:51:35;-1.70;99.90
32749;DHT22;19119;52.474;13.710;2024-03-08T05:54:05;-1.70;99.90
32749;DHT22;19119;52.474;13.710;2024-03-08T05:56:37;-1.70;99.90
32749;DHT22;19119;52.474;13.710;2024-03-08T05:59:03;-1.60;99.90
32749;DHT22;19119;52.474;13.710;2024-03-08T06:01:29;-1.60;99.90
32749;DHT22;19119;52.474;13.710;2024-03-08T06:03:56;-1.60;99.90
32749;DHT22;19119;52.474;13.710;2024-03-08T06:06:23;-1.50;99.90
32749;DHT22;19119;52.474;13.710;2024-03-08T06:08:49;-1.50;99.90
32749;DHT22;19119;52.474;13.710;2024-03-08T06:11:15;-1.50;99.90
32749;DHT22;19119;52.474;13.710;2024-03-08T06:13:43;-1.50;99.90
32749;DHT22;19119;52.474;13.710;2024-03-08T06:16:08;-1.40;99.90
32749;DHT22;19119;52.474;13.710;2024-03-08T06:18:34;-1.40;99.90
32749;DHT22;19119;52.474;13.710;2024-03-08T06:21:04;-1.30;99.90
32749;DHT22;19119;52.474;13.710;2024-03-08T06:23:31;-1.30;99.90
32749;DHT22;19119;52.474;13.710;2024-03-08T06:25:57;-1.30;99.90
32749;DHT22;19119;52.474;13.710;2024-03-08T06:28:23;-1.20;99.90
32749;DHT22;19119;52.474;13.710;2024-03-08T06:30:48;-1.20;99.90
32749;DHT22;19119;52.474;13.710;2024-03-08T06:33:16;-1.10;99.90
32749;DHT22;19119;52.474;13.710;2024-03-08T06:35:41;-1.00;99.90
32749;DHT22;19119;52.474;13.710;2024-03-08T06:38:07;-1.00;99.90
32749;DHT22;19119;52.474;13.710;2024-03-08T06:40:32;-0.90;99.90
32749;DHT22;19119;52.474;13.710;2024-03-08T06:42:58;-0.80;99.90
32749;DHT22;19119;52.474;13.710;2024-03-08T06:45:23;-0.70;99.90
32749;DHT22;19119;52.474;13.710;2024-03-08T06:47:49;-0.70;99.90
32749;DHT22;19119;52.474;13.710;2024-03-08T06:50:15;-0.70;99.90
32749;DHT22;19119;52.474;13.710;2024-03-08T06:52:41;-0.50;99.90
32749;DHT22;19119;52.474;13.710;2024-03-08T06:55:08;-0.40;99.90
32749;DHT22;19119;52.474;13.710;2024-03-08T06:57:40;-0.30;99.90
32749;DHT22;19119;52.474;13.710;2024-03-08T07:00:07;-0.20;99.90
32749;DHT22;19119;52.474;13.710;2024-03-08T07:02:35;0.00;99.90
32749;DHT22;19119;52.474;13.710;2024-03-08T07:05:01;0.30;99.90
32749;DHT22;19119;52.474;13.710;2024-03-08T07:07:27;0.50;99.90
32749;DHT22;19119;52.474;13.710;2024-03-08T07:09:52;0.70;99.90
32749;DHT22;19119;52.474;13.710;2024-03-08T07:12:18;0.80;99.90
32749;DHT22;19119;52.474;13.710;2024-03-08T07:14:43;1.00;99.90
32749;DHT22;19119;52.474;13.710;2024-03-08T07:17:11;1.10;99.90
32749;DHT22;19119;52.474;13.710;2024-03-08T07:19:37;1.20;99.90
32749;DHT22;19119;52.474;13.710;2024-03-08T07:22:04;1.30;99.90
32749;DHT22;19119;52.474;13.710;2024-03-08T07:24:29;1.50;99.90
32749;DHT22;19119;52.474;13.710;2024-03-08T07:27:16;1.60;99.90
32749;DHT22;19119;52.474;13.710;2024-03-08T07:29:41;1.70;99.90
32749;DHT22;19119;52.474;13.710;2024-03-08T07:32:07;1.80;99.90
32749;DHT22;19119;52.474;13.710;2024-03-08T07:34:53;2.00;99.90
32749;DHT22;19119;52.474;13.710;2024-03-08T07:37:18;2.10;99.90
32749;DHT22;19119;52.474;13.710;2024-03-08T07:39:45;1.90;99.90
32749;DHT22;19119;52.474;13.710;2024-03-08T07:42:11;2.00;99.90
32749;DHT22;19119;52.474;13.710;2024-03-08T07:44:37;2.00;99.90
32749;DHT22;19119;52.474;13.710;2024-03-08T07:47:03;2.00;99.90
32749;DHT22;19119;52.474;13.710;2024-03-08T07:49:29;2.20;99.90
32749;DHT22;19119;52.474;13.710;2024-03-08T07:51:55;2.10;99.90
32749;DHT22;19119;52.474;13.710;2024-03-08T07:54:21;2.20;99.90
32749;DHT22;19119;52.474;13.710;2024-03-08T07:56:46;2.40;99.90
32749;DHT22;19119;52.474;13.710;2024-03-08T07:59:12;2.50;99.90
32749;DHT22;19119;52.474;13.710;2024-03-08T08:01:38;2.40;99.90
32749;DHT22;19119;52.474;13.710;2024-03-08T08:04:03;2.60;99.90
32749;DHT22;19119;52.474;13.710;2024-03-08T08:06:30;2.80;99.90
32749;DHT22;19119;52.474;13.710;2024-03-08T08:08:58;3.20;99.90
32749;DHT22;19119;52.474;13.710;2024-03-08T08:11:29;3.50;99.90
32749;DHT22;19119;52.474;13.710;2024-03-08T08:13:54;3.60;99.90
32749;DHT22;19119;52.474;13.710;2024-03-08T08:16:22;3.80;99.90
32749;DHT22;19119;52.474;13.710;2024-03-08T08:18:48;3.90;99.90
32749;DHT22;19119;52.474;13.710;2024-03-08T08:21:13;4.20;99.90
32749;DHT22;19119;52.474;13.710;2024-03-08T08:23:39;4.50;99.90
32749;DHT22;19119;52.474;13.710;2024-03-08T08:26:05;4.70;99.90
32749;DHT22;19119;52.474;13.710;2024-03-08T08:28:33;5.00;99.90
32749;DHT22;19119;52.474;13.710;2024-03-08T08:30:58;5.20;99.90
32749;DHT22;19119;52.474;13.710;2024-03-08T08:33:25;5.30;99.90
32749;DHT22;19119;52.474;13.710;2024-03-08T08:35:51;5.30;99.90
32749;DHT22;19119;52.474;13.710;2024-03-08T08:38:19;5.30;99.90
32749;DHT22;19119;52.474;13.710;2024-03-08T08:40:45;5.70;99.90
32749;DHT22;19119;52.474;13.710;2024-03-08T08:43:12;6.00;99.90
32749;DHT22;19119;52.474;13.710;2024-03-08T08:45:38;6.10;99.90
32749;DHT22;19119;52.474;13.710;2024-03-08T08:48:04;6.00;99.90
32749;DHT22;19119;52.474;13.710;2024-03-08T08:50:30;6.30;99.90
32749;DHT22;19119;52.474;13.710;2024-03-08T08:52:56;6.60;99.90
32749;DHT22;19119;52.474;13.710;2024-03-08T08:55:22;6.90;99.90
32749;DHT22;19119;52.474;13.710;2024-03-08T08:57:53;6.60;99.90
32749;DHT22;19119;52.474;13.710;2024-03-08T09:00:19;6.60;99.90
32749;DHT22;19119;52.474;13.710;2024-03-08T09:02:46;6.70;99.90
32749;DHT22;19119;52.474;13.710;2024-03-08T09:05:12;7.10;99.90
32749;DHT22;19119;52.474;13.710;2024-03-08T09:07:40;7.20;99.90
32749;DHT22;19119;52.474;13.710;2024-03-08T09:10:06;7.70;99.90
32749;DHT22;19119;52.474;13.710;2024-03-08T09:12:31;7.40;99.90
32749;DHT22;19119;52.474;13.710;2024-03-08T09:14:58;8.10;99.90
32749;DHT22;19119;52.474;13.710;2024-03-08T09:17:23;8.20;99.90
32749;DHT22;19119;52.474;13.710;2024-03-08T09:19:49;7.90;99.90
32749;DHT22;19119;52.474;13.710;2024-03-08T09:22:15;8.10;99.90
32749;DHT22;19119;52.474;13.710;2024-03-08T09:24:40;7.90;99.90
32749;DHT22;19119;52.474;13.710;2024-03-08T09:27:08;8.40;99.90
32749;DHT22;19119;52.474;13.710;2024-03-08T09:29:35;8.30;99.90
32749;DHT22;19119;52.474;13.710;2024-03-08T09:32:00;8.10;99.90
32749;DHT22;19119;52.474;13.710;2024-03-08T09:34:26;8.10;99.90
32749;DHT22;19119;52.474;13.710;2024-03-08T09:36:52;8.40;99.90
32749;DHT22;19119;52.474;13.710;2024-03-08T09:39:18;8.20;99.90
32749;DHT22;19119;52.474;13.710;2024-03-08T09:41:46;8.30;99.90
32749;DHT22;19119;52.474;13.710;2024-03-08T09:44:17;8.50;99.90
32749;DHT22;19119;52.474;13.710;2024-03-08T09:46:45;8.80;99.90
32749;DHT22;19119;52.474;13.710;2024-03-08T09:49:13;8.50;99.10
32749;DHT22;19119;52.474;13.710;2024-03-08T09:51:38;8.80;99.30
32749;DHT22;19119;52.474;13.710;2024-03-08T09:54:05;8.90;99.00
32749;DHT22;19119;52.474;13.710;2024-03-08T09:56:39;8.80;98.60
32749;DHT22;19119;52.474;13.710;2024-03-08T09:59:07;8.60;98.50
32749;DHT22;19119;52.474;13.710;2024-03-08T10:01:51;9.10;98.90
32749;DHT22;19119;52.474;13.710;2024-03-08T10:04:24;8.90;98.50
32749;DHT22;19119;52.474;13.710;2024-03-08T10:06:49;8.80;97.20
32749;DHT22;19119;52.474;13.710;2024-03-08T10:09:15;8.90;97.40
32749;DHT22;19119;52.474;13.710;2024-03-08T10:11:42;8.60;97.50
32749;DHT22;19119;52.474;13.710;2024-03-08T10:14:09;8.70;97.40
32749;DHT22;19119;52.474;13.710;2024-03-08T10:16:34;8.50;97.50
32749;DHT22;19119;52.474;13.710;2024-03-08T10:19:00;8.80;97.70
32749;DHT22;19119;52.474;13.710;2024-03-08T10:21:26;9.10;97.90
32749;DHT22;19119;52.474;13.710;2024-03-08T10:23:52;9.30;97.40
32749;DHT22;19119;52.474;13.710;2024-03-08T10:26:18;9.20;96.80
32749;DHT22;19119;52.474;13.710;2024-03-08T10:28:47;8.80;96.30
32749;DHT22;19119;52.474;13.710;2024-03-08T10:31:13;9.40;96.70
32749;DHT22;19119;52.474;13.710;2024-03-08T10:33:40;10.10;96.60
32749;DHT22;19119;52.474;13.710;2024-03-08T10:36:07;10.90;96.30
32749;DHT22;19119;52.474;13.710;2024-03-08T10:38:36;11.20;95.40
32749;DHT22;19119;52.474;13.710;2024-03-08T10:41:02;12.20;94.80
32749;DHT22;19119;52.474;13.710;2024-03-08T10:43:32;12.30;94.40
32749;DHT22;19119;52.474;13.710;2024-03-08T10:46:30;12.70;93.40
32749;DHT22;19119;52.474;13.710;2024-03-08T10:49:04;12.70;93.40
32749;DHT22;19119;52.474;13.710;2024-03-08T10:51:32;13.80;92.30
32749;DHT22;19119;52.474;13.710;2024-03-08T10:53:59;14.10;92.10
32749;DHT22;19119;52.474;13.710;2024-03-08T10:56:25;14.50;91.50
32749;DHT22;19119;52.474;13.710;2024-03-08T10:58:53;14.60;91.40
32749;DHT22;19119;52.474;13.710;2024-03-08T11:01:19;15.30;90.60
32749;DHT22;19119;52.474;13.710;2024-03-08T11:03:46;15.40;90.40
32749;DHT22;19119;52.474;13.710;2024-03-08T11:06:30;14.80;90.70
32749;DHT22;19119;52.474;13.710;2024-03-08T11:08:57;14.90;91.20
32749;DHT22;19119;52.474;13.710;2024-03-08T11:11:33;14.30;90.40
32749;DHT22;19119;52.474;13.710;2024-03-08T11:14:02;14.70;90.10
32749;DHT22;19119;52.474;13.710;2024-03-08T11:18:54;15.60;90.30
32749;DHT22;19119;52.474;13.710;2024-03-08T11:21:20;15.10;89.10
32749;DHT22;19119;52.474;13.710;2024-03-08T11:24:12;15.70;89.00
32749;DHT22;19119;52.474;13.710;2024-03-08T11:26:39;15.00;90.20
32749;DHT22;19119;52.474;13.710;2024-03-08T11:31:52;14.80;89.70
32749;DHT22;19119;52.474;13.710;2024-03-08T11:34:19;15.80;88.50
32749;DHT22;19119;52.474;13.710;2024-03-08T11:36:48;15.90;88.40
32749;DHT22;19119;52.474;13.710;2024-03-08T11:39:13;15.50;86.30
32749;DHT22;19119;52.474;13.710;2024-03-08T11:41:40;15.40;87.30
32749;DHT22;19119;52.474;13.710;2024-03-08T11:44:07;15.90;87.00
32749;DHT22;19119;52.474;13.710;2024-03-08T11:46:33;16.60;86.40
32749;DHT22;19119;52.474;13.710;2024-03-08T11:49:00;15.90;85.40
32749;DHT22;19119;52.474;13.710;2024-03-08T11:51:27;15.60;85.90
32749;DHT22;19119;52.474;13.710;2024-03-08T11:53:52;16.00;85.20
32749;DHT22;19119;52.474;13.710;2024-03-08T11:56:18;16.60;84.60
32749;DHT22;19119;52.474;13.710;2024-03-08T11:58:54;17.00;84.20
32749;DHT22;19119;52.474;13.710;2024-03-08T12:01:22;16.90;82.80
32749;DHT22;19119;52.474;13.710;2024-03-08T12:03:53;17.50;82.60
32749;DHT22;19119;52.474;13.710;2024-03-08T12:06:19;18.60;83.20
32749;DHT22;19119;52.474;13.710;2024-03-08T12:08:46;17.40;82.20
32749;DHT22;19119;52.474;13.710;2024-03-08T12:11:14;17.70;81.50
32749;DHT22;19119;52.474;13.710;2024-03-08T12:13:41;17.30;80.50
32749;DHT22;19119;52.474;13.710;2024-03-08T12:16:07;18.20;80.50
32749;DHT22;19119;52.474;13.710;2024-03-08T12:18:34;17.60;79.60
32749;DHT22;19119;52.474;13.710;2024-03-08T12:21:12;17.40;79.90
32749;DHT22;19119;52.474;13.710;2024-03-08T12:24:08;18.00;80.60
32749;DHT22;19119;52.474;13.710;2024-03-08T12:26:38;17.70;80.30
32749;DHT22;19119;52.474;13.710;2024-03-08T12:29:24;16.90;80.30
32749;DHT22;19119;52.474;13.710;2024-03-08T12:31:57;18.00;80.90
32749;DHT22;19119;52.474;13.710;2024-03-08T12:34:24;17.70;79.50
32749;DHT22;19119;52.474;13.710;2024-03-08T12:36:51;18.40;79.60
32749;DHT22;19119;52.474;13.710;2024-03-08T12:39:20;17.30;79.90
32749;DHT22;19119;52.474;13.710;2024-03-08T12:41:53;17.80;78.70
32749;DHT22;19119;52.474;13.710;2024-03-08T12:44:19;18.10;77.80
32749;DHT22;19119;52.474;13.710;2024-03-08T12:46:47;18.40;77.30
32749;DHT22;19119;52.474;13.710;2024-03-08T12:49:14;18.20;77.60
32749;DHT22;19119;52.474;13.710;2024-03-08T12:51:43;18.50;76.80
32749;DHT22;19119;52.474;13.710;2024-03-08T12:54:09;17.70;78.40
32749;DHT22;19119;52.474;13.710;2024-03-08T12:56:35;18.40;78.10
32749;DHT22;19119;52.474;13.710;2024-03-08T12:59:03;18.50;75.30
32749;DHT22;19119;52.474;13.710;2024-03-08T13:01:31;18.90;76.10
32749;DHT22;19119;52.474;13.710;2024-03-08T13:03:59;19.00;76.00
32749;DHT22;19119;52.474;13.710;2024-03-08T13:06:27;19.10;74.70
32749;DHT22;19119;52.474;13.710;2024-03-08T13:08:54;18.90;75.50
32749;DHT22;19119;52.474;13.710;2024-03-08T13:11:21;19.10;75.10
32749;DHT22;19119;52.474;13.710;2024-03-08T13:13:46;18.00;74.30
32749;DHT22;19119;52.474;13.710;2024-03-08T13:16:12;17.40;76.30
32749;DHT22;19119;52.474;13.710;2024-03-08T13:18:41;17.40;76.50
32749;DHT22;19119;52.474;13.710;2024-03-08T13:21:07;18.20;76.90
32749;DHT22;19119;52.474;13.710;2024-03-08T13:23:35;17.00;75.50
32749;DHT22;19119;52.474;13.710;2024-03-08T13:26:07;15.90;76.00
32749;DHT22;19119;52.474;13.710;2024-03-08T13:28:33;15.50;76.10
32749;DHT22;19119;52.474;13.710;2024-03-08T13:31:05;15.40;76.80
32749;DHT22;19119;52.474;13.710;2024-03-08T13:33:36;15.40;77.00
32749;DHT22;19119;52.474;13.710;2024-03-08T13:36:05;17.20;76.30
32749;DHT22;19119;52.474;13.710;2024-03-08T13:38:34;17.30;75.10
32749;DHT22;19119;52.474;13.710;2024-03-08T13:41:01;17.60;74.70
32749;DHT22;19119;52.474;13.710;2024-03-08T13:43:28;18.10;73.50
32749;DHT22;19119;52.474;13.710;2024-03-08T13:45:54;19.00;73.40
32749;DHT22;19119;52.474;13.710;2024-03-08T13:48:20;20.00;72.20
32749;DHT22;19119;52.474;13.710;2024-03-08T13:50:48;20.30;71.10
32749;DHT22;19119;52.474;13.710;2024-03-08T13:53:13;19.50;71.30
32749;DHT22;19119;52.474;13.710;2024-03-08T13:55:40;19.40;71.90
32749;DHT22;19119;52.474;13.710;2024-03-08T13:58:06;18.60;73.00
32749;DHT22;19119;52.474;13.710;2024-03-08T14:00:37;18.40;73.90
32749;DHT22;19119;52.474;13.710;2024-03-08T14:03:03;16.40;73.00
32749;DHT22;19119;52.474;13.710;2024-03-08T14:05:32;13.70;76.50
32749;DHT22;19119;52.474;13.710;2024-03-08T14:08:01;11.70;79.30
32749;DHT22;19119;52.474;13.710;2024-03-08T14:10:29;10.80;81.10
32749;DHT22;19119;52.474;13.710;2024-03-08T14:12:56;10.30;82.20
32749;DHT22;19119;52.474;13.710;2024-03-08T14:15:22;10.40;83.30
32749;DHT22;19119;52.474;13.710;2024-03-08T14:17:54;10.70;82.60
32749;DHT22;19119;52.474;13.710;2024-03-08T14:20:20;11.30;81.60
32749;DHT22;19119;52.474;13.710;2024-03-08T14:22:53;12.50;80.30
32749;DHT22;19119;52.474;13.710;2024-03-08T14:25:20;14.10;78.10
32749;DHT22;19119;52.474;13.710;2024-03-08T14:27:46;14.90;77.50
32749;DHT22;19119;52.474;13.710;2024-03-08T14:30:12;14.60;77.30
32749;DHT22;19119;52.474;13.710;2024-03-08T14:32:38;14.10;78.10
32749;DHT22;19119;52.474;13.710;2024-03-08T14:35:05;14.40;77.20
32749;DHT22;19119;52.474;13.710;2024-03-08T14:37:30;12.70;78.70
32749;DHT22;19119;52.474;13.710;2024-03-08T14:39:56;12.20;80.20
32749;DHT22;19119;52.474;13.710;2024-03-08T14:42:21;11.50;80.80
32749;DHT22;19119;52.474;13.710;2024-03-08T14:44:48;11.40;82.30
32749;DHT22;19119;52.474;13.710;2024-03-08T14:47:17;11.10;83.00
32749;DHT22;19119;52.474;13.710;2024-03-08T14:49:42;10.70;82.80
32749;DHT22;19119;52.474;13.710;2024-03-08T14:52:08;10.50;83.80
32749;DHT22;19119;52.474;13.710;2024-03-08T14:54:53;10.30;83.70
32749;DHT22;19119;52.474;13.710;2024-03-08T14:57:18;10.10;84.00
32749;DHT22;19119;52.474;13.710;2024-03-08T14:59:44;10.00;84.30
32749;DHT22;19119;52.474;13.710;2024-03-08T15:02:10;10.10;84.50
32749;DHT22;19119;52.474;13.710;2024-03-08T15:04:36;10.00;85.00
32749;DHT22;19119;52.474;13.710;2024-03-08T15:07:02;10.00;85.70
32749;DHT22;19119;52.474;13.710;2024-03-08T15:09:28;9.80;85.30
32749;DHT22;19119;52.474;13.710;2024-03-08T15:11:53;9.70;86.00
32749;DHT22;19119;52.474;13.710;2024-03-08T15:14:20;9.70;86.40
32749;DHT22;19119;52.474;13.710;2024-03-08T15:16:46;9.60;86.70
32749;DHT22;19119;52.474;13.710;2024-03-08T15:19:13;9.70;86.80
32749;DHT22;19119;52.474;13.710;2024-03-08T15:21:40;9.70;87.00
32749;DHT22;19119;52.474;13.710;2024-03-08T15:24:08;9.50;87.00